createdAt,value
2022-10-23T00:00:42.157Z,9.77
2022-10-23T00:03:09.750Z,8.57
2022-10-23T00:05:40.515Z,8.93
2022-10-23T00:08:07.962Z,8.35
2022-10-23T00:10:35.263Z,8.20
2022-10-23T00:13:02.864Z,7.50
2022-10-23T00:15:30.103Z,7.07
2022-10-23T00:17:57.354Z,7.28
2022-10-23T00:20:24.619Z,7.93
2022-10-23T00:22:51.998Z,7.00
2022-10-23T00:25:20.274Z,6.78
2022-10-23T00:27:47.610Z,7.20
2022-10-23T00:30:15.131Z,6.50
2022-10-23T00:32:42.395Z,6.15
2022-10-23T00:35:09.684Z,6.05
2022-10-23T00:37:36.980Z,8.13
2022-10-23T00:40:05.021Z,5.77
2022-10-23T00:42:32.230Z,5.70
2022-10-23T00:45:20.806Z,5.75
2022-10-23T00:47:48.541Z,5.10
2022-10-23T00:50:15.862Z,5.03
2022-10-23T00:52:46.926Z,5.57
2022-10-23T00:55:14.908Z,4.70
2022-10-23T00:57:43.470Z,5.28
2022-10-23T01:00:16.556Z,6.13
2022-10-23T01:02:44.220Z,7.18
2022-10-23T01:05:13.461Z,5.60
2022-10-23T01:07:50.047Z,5.30
2022-10-23T01:10:20.317Z,5.30
2022-10-23T01:13:02.470Z,5.03
2022-10-23T01:15:41.023Z,5.03
2022-10-23T01:18:08.241Z,4.47
2022-10-23T01:21:08.633Z,4.75
2022-10-23T01:23:57.938Z,5.40
2022-10-23T01:26:35.111Z,6.75
2022-10-23T01:29:10.668Z,6.75
2022-10-23T01:31:42.512Z,5.37
2022-10-23T01:34:14.718Z,5.57
2022-10-23T01:36:43.924Z,5.63
2022-10-23T01:39:17.754Z,5.88
2022-10-23T01:41:56.211Z,5.25
2022-10-23T01:44:35.399Z,5.90
2022-10-23T01:47:02.930Z,5.90
2022-10-23T01:49:32.689Z,6.53
2022-10-23T01:52:01.743Z,5.53
2022-10-23T01:54:30.825Z,6.20
2022-10-23T01:56:58.293Z,5.87
2022-10-23T01:59:35.426Z,6.15
2022-10-23T02:02:03.996Z,5.75
2022-10-23T02:04:36.686Z,5.70
2022-10-23T02:07:04.235Z,5.82
2022-10-23T02:09:31.861Z,5.83
2022-10-23T02:12:04.584Z,6.55
2022-10-23T02:14:34.469Z,6.22
2022-10-23T02:17:09.907Z,6.18
2022-10-23T02:20:36.048Z,6.60
2022-10-23T02:23:28.863Z,6.33
2022-10-23T02:26:03.081Z,6.15
2022-10-23T02:28:34.998Z,6.47
2022-10-23T02:31:03.110Z,6.32
2022-10-23T02:33:31.343Z,6.43
2022-10-23T02:35:58.662Z,5.97
2022-10-23T02:38:37.064Z,5.68
2022-10-23T02:41:16.587Z,6.63
2022-10-23T02:44:02.082Z,5.28
2022-10-23T02:46:36.634Z,5.57
2022-10-23T02:49:14.395Z,5.10
2022-10-23T02:51:53.297Z,5.50
2022-10-23T02:55:16.320Z,5.68
2022-10-23T02:58:04.651Z,5.60
2022-10-23T03:00:54.855Z,5.57
2022-10-23T03:03:28.585Z,5.83
2022-10-23T03:05:55.869Z,6.20
2022-10-23T03:08:23.162Z,5.40
2022-10-23T03:10:51.677Z,5.60
2022-10-23T03:13:20.965Z,6.97
2022-10-23T03:15:48.404Z,5.77
2022-10-23T03:18:15.702Z,7.18
2022-10-23T03:20:48.038Z,5.70
2022-10-23T03:23:15.803Z,6.13
2022-10-23T03:25:43.791Z,5.93
2022-10-23T03:28:24.175Z,6.00
2022-10-23T03:30:51.527Z,5.65
2022-10-23T03:33:18.786Z,5.82
2022-10-23T03:38:15.906Z,4.47
2022-10-23T03:40:43.417Z,5.03
2022-10-23T03:43:12.862Z,4.90
2022-10-23T03:45:40.221Z,5.18
2022-10-23T03:48:07.498Z,5.10
2022-10-23T03:50:35.928Z,5.50
2022-10-23T03:53:03.195Z,4.80
2022-10-23T03:55:30.668Z,5.43
2022-10-23T03:57:57.884Z,4.90
2022-10-23T04:00:25.146Z,5.15
2022-10-23T04:02:52.400Z,4.88
2022-10-23T04:05:19.709Z,4.47
2022-10-23T04:07:54.582Z,4.68
2022-10-23T04:10:22.136Z,4.63
2022-10-23T04:12:49.502Z,5.53
2022-10-23T04:15:16.804Z,5.53
2022-10-23T04:17:46.344Z,5.30
2022-10-23T04:20:13.892Z,5.47
2022-10-23T04:22:41.263Z,4.60
2022-10-23T04:25:09.015Z,4.80
2022-10-23T04:27:36.273Z,4.55
2022-10-23T04:30:03.878Z,4.27
2022-10-23T04:32:31.588Z,5.70
2022-10-23T04:34:58.852Z,4.20
2022-10-23T04:37:26.167Z,4.05
2022-10-23T04:39:53.465Z,4.63
2022-10-23T04:42:20.728Z,4.33
2022-10-23T04:44:48.127Z,4.57
2022-10-23T04:47:15.501Z,4.00
2022-10-23T04:49:57.947Z,4.22
2022-10-23T04:52:44.187Z,4.57
2022-10-23T04:55:30.332Z,4.20
2022-10-23T04:58:12.094Z,4.28
2022-10-23T05:00:39.534Z,4.18
2022-10-23T05:03:06.845Z,4.00
2022-10-23T05:05:38.327Z,4.07
2022-10-23T05:08:24.379Z,3.97
2022-10-23T05:11:12.939Z,3.40
2022-10-23T05:13:44.659Z,3.63
2022-10-23T05:16:13.285Z,3.90
2022-10-23T05:18:45.607Z,3.72
2022-10-23T05:21:22.260Z,3.50
2022-10-23T05:23:50.576Z,3.53
2022-10-23T05:26:18.449Z,3.88
2022-10-23T05:28:48.437Z,3.53
2022-10-23T05:31:18.242Z,4.10
2022-10-23T05:33:49.728Z,3.93
2022-10-23T05:36:17.026Z,3.38
2022-10-23T05:38:45.899Z,3.90
2022-10-23T05:41:18.194Z,4.35
2022-10-23T05:43:46.374Z,3.67
2022-10-23T05:46:32.036Z,4.10
2022-10-23T05:49:24.617Z,3.78
2022-10-23T05:51:54.715Z,10.65
2022-10-23T05:54:28.973Z,5.78
2022-10-23T05:57:14.931Z,4.80
2022-10-23T05:59:49.289Z,4.67
2022-10-23T06:02:24.429Z,5.10
2022-10-23T06:05:06.432Z,5.95
2022-10-23T06:07:49.952Z,4.63
2022-10-23T06:10:18.685Z,4.35
2022-10-23T06:12:48.325Z,7.57
2022-10-23T06:15:17.861Z,5.43
2022-10-23T06:18:02.454Z,5.55
2022-10-23T06:20:31.998Z,5.18
2022-10-23T06:23:08.724Z,5.55
2022-10-23T06:25:55.954Z,5.30
2022-10-23T06:28:31.875Z,5.07
2022-10-23T06:30:59.803Z,6.20
2022-10-23T06:33:27.214Z,5.97
2022-10-23T06:35:56.524Z,5.15
2022-10-23T06:38:23.874Z,4.60
2022-10-23T06:40:58.510Z,4.95
2022-10-23T06:43:34.781Z,4.28
2022-10-23T06:46:22.366Z,3.78
2022-10-23T06:49:01.555Z,4.22
2022-10-23T06:51:33.117Z,4.60
2022-10-23T06:54:00.554Z,4.55
2022-10-23T06:56:54.035Z,4.28
2022-10-23T06:59:33.251Z,4.25
2022-10-23T07:02:00.939Z,3.83
2022-10-23T07:04:28.439Z,4.33
2022-10-23T07:06:58.758Z,3.78
2022-10-23T07:09:32.508Z,3.63
2022-10-23T07:12:17.452Z,4.28
2022-10-23T07:14:50.727Z,4.75
2022-10-23T07:17:18.016Z,4.03
2022-10-23T07:19:46.820Z,4.10
2022-10-23T07:22:16.158Z,3.78
2022-10-23T07:25:03.502Z,3.72
2022-10-23T07:27:38.035Z,3.90
2022-10-23T07:30:07.811Z,4.00
2022-10-23T07:32:43.795Z,3.80
2022-10-23T07:35:19.793Z,3.97
2022-10-23T07:37:55.810Z,3.53
2022-10-23T07:40:23.179Z,6.00
2022-10-23T07:42:54.020Z,4.80
2022-10-23T07:45:21.365Z,5.75
2022-10-23T07:47:52.297Z,4.85
2022-10-23T07:50:21.600Z,4.78
2022-10-23T07:52:49.135Z,4.20
2022-10-23T07:55:17.915Z,3.77
2022-10-23T07:57:51.237Z,4.85
2022-10-23T08:00:33.792Z,4.80
2022-10-23T08:03:12.907Z,4.45
2022-10-23T08:05:40.646Z,5.30
2022-10-23T08:08:08.028Z,4.20
2022-10-23T08:10:37.421Z,3.90
2022-10-23T08:13:06.697Z,4.43
2022-10-23T08:15:51.018Z,4.05
2022-10-23T08:18:42.919Z,3.75
2022-10-23T08:21:10.420Z,3.60
2022-10-23T08:23:37.926Z,3.55
2022-10-23T08:26:05.885Z,3.42
2022-10-23T08:28:33.223Z,3.30
2022-10-23T08:31:28.265Z,3.13
2022-10-23T08:34:14.396Z,2.93
2022-10-23T08:36:43.617Z,2.90
2022-10-23T08:39:11.769Z,2.90
2022-10-23T08:41:50.787Z,3.28
2022-10-23T08:44:36.546Z,3.35
2022-10-23T08:47:07.832Z,3.40
2022-10-23T08:49:58.485Z,3.10
2022-10-23T08:52:30.361Z,3.10
2022-10-23T08:55:15.633Z,3.10
2022-10-23T08:57:51.364Z,3.42
2022-10-23T09:00:18.971Z,3.40
2022-10-23T09:02:50.928Z,3.35
2022-10-23T09:05:30.838Z,3.70
2022-10-23T09:08:18.440Z,2.78
2022-10-23T09:11:04.320Z,3.17
2022-10-23T09:13:59.459Z,2.93
2022-10-23T09:16:56.009Z,3.08
2022-10-23T09:19:27.420Z,2.78
2022-10-23T09:21:54.912Z,3.08
2022-10-23T09:24:24.601Z,3.47
2022-10-23T09:26:52.914Z,3.00
2022-10-23T09:29:32.048Z,2.67
2022-10-23T09:32:00.362Z,2.67
2022-10-23T09:34:31.653Z,2.80
2022-10-23T09:37:01.167Z,2.80
2022-10-23T09:39:33.277Z,2.77
2022-10-23T09:42:02.527Z,2.85
2022-10-23T09:44:31.280Z,3.15
2022-10-23T09:47:07.789Z,2.97
2022-10-23T09:49:35.235Z,2.53
2022-10-23T09:52:08.507Z,2.63
2022-10-23T09:54:44.584Z,3.17
2022-10-23T09:57:17.986Z,3.03
2022-10-23T09:59:49.775Z,3.20
2022-10-23T10:02:36.391Z,2.92
2022-10-23T10:05:32.722Z,3.07
2022-10-23T10:08:22.631Z,2.83
2022-10-23T10:10:56.627Z,2.60
2022-10-23T10:13:33.031Z,2.65
2022-10-23T10:16:19.192Z,2.70
2022-10-23T10:19:08.294Z,2.83
2022-10-23T10:22:01.001Z,1.83
2022-10-23T10:25:01.592Z,2.45
2022-10-23T10:27:54.819Z,2.67
2022-10-23T10:30:24.929Z,2.35
2022-10-23T10:33:02.015Z,2.67
2022-10-23T10:35:40.879Z,2.38
2022-10-23T10:38:14.102Z,2.38
2022-10-23T10:41:26.650Z,2.38
2022-10-23T10:43:57.092Z,2.10
2022-10-23T10:46:44.930Z,1.63
2022-10-23T10:49:22.899Z,2.15
2022-10-23T10:52:06.399Z,2.00
2022-10-23T10:54:43.069Z,2.50
2022-10-23T10:57:24.385Z,1.90
2022-10-23T10:59:51.695Z,2.20
2022-10-23T11:02:34.194Z,1.75
2022-10-23T11:05:15.553Z,2.15
2022-10-23T11:08:14.054Z,1.80
2022-10-23T11:10:45.793Z,1.50
2022-10-23T11:13:29.221Z,1.93
2022-10-23T11:15:59.257Z,1.90
2022-10-23T11:18:28.750Z,1.70
2022-10-23T11:21:08.560Z,2.17
2022-10-23T11:23:41.633Z,2.05
2022-10-23T11:26:46.955Z,2.33
2022-10-23T11:29:40.982Z,2.00
2022-10-23T11:32:14.147Z,1.90
2022-10-23T11:34:52.035Z,1.88
2022-10-23T11:37:19.780Z,1.60
2022-10-23T11:40:21.899Z,1.73
2022-10-23T11:42:50.382Z,1.70
2022-10-23T11:45:37.919Z,1.90
2022-10-23T11:48:14.434Z,2.10
2022-10-23T11:50:44.868Z,2.30
2022-10-23T11:53:25.645Z,2.07
2022-10-23T11:56:06.868Z,2.08
2022-10-23T11:58:43.389Z,1.90
2022-10-23T12:01:24.509Z,2.78
2022-10-23T12:03:56.940Z,1.88
2022-10-23T12:06:39.076Z,2.07
2022-10-23T12:09:26.637Z,2.45
2022-10-23T12:12:09.185Z,2.55
2022-10-23T12:14:37.774Z,2.30
2022-10-23T12:17:24.824Z,2.20
2022-10-23T12:20:19.342Z,1.50
2022-10-23T12:23:01.493Z,2.00
2022-10-23T12:25:59.046Z,2.00
2022-10-23T12:28:37.331Z,2.28
2022-10-23T12:31:04.801Z,2.70
2022-10-23T12:34:04.157Z,2.10
2022-10-23T12:36:49.742Z,2.60
2022-10-23T12:39:37.425Z,2.38
2022-10-23T12:42:05.298Z,2.30
2022-10-23T12:44:32.599Z,2.40
2022-10-23T12:47:01.171Z,2.30
2022-10-23T12:49:31.586Z,2.22
2022-10-23T12:52:06.653Z,2.60
2022-10-23T12:54:38.702Z,2.25
2022-10-23T12:57:28.449Z,2.90
2022-10-23T12:59:58.251Z,2.50
2022-10-23T13:02:27.564Z,2.70
2022-10-23T13:04:55.975Z,3.10
2022-10-23T13:07:28.097Z,2.80
2022-10-23T13:09:59.114Z,2.90
2022-10-23T13:12:31.206Z,2.80
2022-10-23T13:15:07.744Z,2.60
2022-10-23T13:17:39.565Z,2.50
2022-10-23T13:20:16.586Z,2.90
2022-10-23T13:22:48.227Z,2.75
2022-10-23T13:25:35.085Z,2.93
2022-10-23T13:28:08.351Z,2.70
2022-10-23T13:30:40.449Z,2.85
2022-10-23T13:33:26.366Z,2.85
2022-10-23T13:36:19.131Z,3.10
2022-10-23T13:39:02.447Z,2.80
2022-10-23T13:41:40.695Z,3.00
2022-10-23T13:44:09.529Z,2.92
2022-10-23T13:46:36.727Z,3.25
2022-10-23T13:49:04.005Z,2.63
2022-10-23T13:51:47.595Z,2.50
2022-10-23T13:54:19.686Z,2.83
2022-10-23T13:56:47.279Z,2.67
2022-10-23T13:59:15.132Z,2.90
2022-10-23T14:01:42.813Z,2.55
2022-10-23T14:04:11.373Z,2.80
2022-10-23T14:06:38.881Z,2.50
2022-10-23T14:09:07.092Z,2.83
2022-10-23T14:11:34.491Z,2.80
2022-10-23T14:14:01.844Z,2.58
2022-10-23T14:16:30.102Z,2.67
2022-10-23T14:18:57.489Z,2.75
2022-10-23T14:21:25.751Z,3.08
2022-10-23T14:23:53.547Z,2.42
2022-10-23T14:26:24.842Z,2.72
2022-10-23T14:28:53.942Z,2.80
2022-10-23T14:31:21.217Z,2.95
2022-10-23T14:33:56.012Z,3.00
2022-10-23T14:36:23.670Z,3.03
2022-10-23T14:38:55.826Z,3.17
2022-10-23T14:41:23.605Z,3.10
2022-10-23T14:43:50.855Z,3.05
2022-10-23T14:46:21.786Z,3.08
2022-10-23T14:48:51.028Z,2.80
2022-10-23T14:51:25.295Z,3.33
2022-10-23T14:54:06.067Z,3.73
2022-10-23T14:56:34.676Z,4.00
2022-10-23T14:59:04.781Z,3.42
2022-10-23T15:01:33.340Z,3.35
2022-10-23T15:04:00.854Z,3.15
2022-10-23T15:06:28.181Z,3.23
2022-10-23T15:08:55.735Z,3.40
2022-10-23T15:11:23.748Z,3.67
2022-10-23T15:13:51.077Z,4.03
2022-10-23T15:16:18.529Z,3.42
2022-10-23T15:18:45.764Z,4.03
2022-10-23T15:21:13.283Z,4.10
2022-10-23T15:23:43.521Z,4.15
2022-10-23T15:26:20.106Z,4.05
2022-10-23T15:28:58.624Z,3.63
2022-10-23T15:31:37.562Z,3.80
2022-10-23T15:34:05.629Z,3.72
2022-10-23T15:36:32.984Z,4.38
2022-10-23T15:39:00.313Z,4.25
2022-10-23T15:41:28.854Z,4.18
2022-10-23T15:43:56.504Z,4.20
2022-10-23T15:46:23.745Z,4.50
2022-10-23T15:48:51.186Z,4.15
2022-10-23T15:51:18.394Z,4.72
2022-10-23T15:53:45.668Z,4.35
2022-10-23T15:56:13.065Z,4.73
2022-10-23T15:58:40.407Z,5.07
2022-10-23T16:01:07.847Z,5.30
2022-10-23T16:03:35.832Z,4.85
2022-10-23T16:06:07.030Z,4.97
2022-10-23T16:08:34.345Z,5.50
2022-10-23T16:11:01.848Z,6.75
2022-10-23T16:13:29.225Z,9.48
2022-10-23T16:15:56.453Z,16.13
2022-10-23T16:18:23.824Z,14.30
2022-10-23T16:20:51.140Z,13.60
2022-10-23T16:23:18.389Z,13.05
2022-10-23T16:25:46.535Z,10.27
2022-10-23T16:28:13.974Z,11.30
2022-10-23T16:30:42.438Z,11.68
2022-10-23T16:33:09.778Z,11.27
2022-10-23T16:35:37.635Z,9.90
2022-10-23T16:38:13.735Z,10.32
2022-10-23T16:40:41.123Z,11.68
2022-10-23T16:43:39.260Z,18.08
2022-10-23T16:46:39.822Z,17.20
2022-10-23T16:49:08.911Z,13.65
2022-10-23T16:51:36.256Z,17.58
2022-10-23T16:54:04.072Z,20.88
2022-10-23T16:56:31.481Z,16.05
2022-10-23T16:58:59.823Z,13.87
2022-10-23T17:01:29.217Z,16.73
2022-10-23T17:03:57.204Z,15.43
2022-10-23T17:06:26.577Z,15.90
2022-10-23T17:08:54.700Z,16.80
2022-10-23T17:11:24.156Z,15.90
2022-10-23T17:13:58.601Z,16.20
2022-10-23T17:16:35.100Z,15.00
2022-10-23T17:19:03.174Z,14.95
2022-10-23T17:21:32.795Z,15.73
2022-10-23T17:24:00.235Z,15.27
2022-10-23T17:26:27.871Z,16.48
2022-10-23T17:28:57.165Z,18.50
2022-10-23T17:31:29.946Z,15.43
2022-10-23T17:33:58.698Z,19.10
2022-10-23T17:36:26.631Z,16.00
2022-10-23T17:38:53.952Z,20.90
2022-10-23T17:41:21.899Z,16.30
2022-10-23T17:43:49.724Z,16.73
2022-10-23T17:46:17.500Z,16.30
2022-10-23T17:48:44.781Z,15.63
2022-10-23T17:51:22.632Z,15.63
2022-10-23T17:53:51.079Z,20.15
2022-10-23T17:56:22.627Z,19.35
2022-10-23T17:58:50.474Z,20.30
2022-10-23T18:01:19.616Z,19.23
2022-10-23T18:03:47.197Z,17.38
2022-10-23T18:06:19.744Z,18.70
2022-10-23T18:08:47.319Z,25.27
2022-10-23T18:11:18.904Z,23.98
2022-10-23T18:13:46.386Z,22.77
2022-10-23T18:16:13.978Z,21.20
2022-10-23T18:18:41.945Z,25.40
2022-10-23T18:21:09.318Z,28.38
2022-10-23T18:23:36.816Z,22.48
2022-10-23T18:26:04.563Z,19.67
2022-10-23T18:28:31.948Z,19.23
2022-10-23T18:30:59.290Z,22.35
2022-10-23T18:33:26.888Z,24.55
2022-10-23T18:35:54.246Z,24.45
2022-10-23T18:38:21.817Z,24.20
2022-10-23T18:40:49.046Z,25.58
2022-10-23T18:43:31.268Z,24.70
2022-10-23T18:46:04.290Z,20.35
2022-10-23T18:48:31.596Z,26.20
2022-10-23T18:50:58.889Z,22.60
2022-10-23T18:53:26.189Z,23.48
2022-10-23T18:55:53.485Z,18.65
2022-10-23T18:58:20.857Z,20.15
2022-10-23T19:00:48.218Z,19.17
2022-10-23T19:03:15.671Z,17.70
2022-10-23T19:05:46.381Z,17.00
2022-10-23T19:08:13.767Z,20.70
2022-10-23T19:10:41.182Z,20.20
2022-10-23T19:13:08.589Z,22.40
2022-10-23T19:15:35.819Z,18.83
2022-10-23T19:18:04.247Z,19.38
2022-10-23T19:20:31.517Z,20.95
2022-10-23T19:22:59.003Z,22.77
2022-10-23T19:25:31.331Z,23.27
2022-10-23T19:27:58.744Z,24.53
2022-10-23T19:30:26.445Z,33.08
2022-10-23T19:32:53.763Z,25.17
2022-10-23T19:35:21.337Z,24.23
2022-10-23T19:37:49.075Z,24.00
2022-10-23T19:40:16.461Z,25.93
2022-10-23T19:42:44.342Z,28.92
2022-10-23T19:45:13.233Z,27.83
2022-10-23T19:47:41.125Z,28.33
2022-10-23T19:50:09.044Z,26.30
2022-10-23T19:52:36.341Z,27.37
2022-10-23T19:55:04.446Z,25.80
2022-10-23T19:57:33.912Z,29.63
2022-10-23T20:00:01.344Z,29.55
2022-10-23T20:02:28.944Z,31.83
2022-10-23T20:04:56.301Z,32.93
2022-10-23T20:07:23.624Z,29.38
2022-10-23T20:09:50.838Z,32.10
2022-10-23T20:12:18.162Z,33.42
2022-10-23T20:14:45.463Z,30.10
2022-10-23T20:17:12.757Z,26.40
2022-10-23T20:19:40.070Z,30.38
2022-10-23T20:22:07.382Z,29.92
2022-10-23T20:24:34.649Z,20.17
2022-10-23T20:27:01.994Z,15.98
2022-10-23T20:29:29.910Z,14.97
2022-10-23T20:31:57.238Z,15.90
2022-10-23T20:34:24.596Z,14.70
2022-10-23T20:36:52.051Z,17.80
2022-10-23T20:39:21.241Z,17.75
2022-10-23T20:41:48.675Z,21.40
2022-10-23T20:46:49.067Z,16.58
2022-10-23T20:49:16.345Z,15.32
2022-10-23T20:51:43.719Z,15.45
2022-10-23T20:54:10.944Z,12.87
2022-10-23T20:56:38.909Z,12.38
2022-10-23T20:59:07.981Z,10.13
2022-10-23T21:01:35.386Z,9.43
2022-10-23T21:04:03.321Z,8.85
2022-10-23T21:06:41.048Z,8.10
2022-10-23T21:09:18.680Z,8.18
2022-10-23T21:11:46.002Z,8.02
2022-10-23T21:14:13.402Z,8.07
2022-10-23T21:16:46.509Z,7.90
2022-10-23T21:19:14.773Z,7.30
2022-10-23T21:21:42.482Z,8.43
2022-10-23T21:24:12.652Z,6.47
2022-10-23T21:26:39.994Z,6.40
2022-10-23T21:29:17.846Z,6.43
2022-10-23T21:31:46.179Z,6.00
2022-10-23T21:34:13.384Z,5.65
2022-10-23T21:36:54.170Z,6.25
2022-10-23T21:39:28.749Z,6.13
2022-10-23T21:41:55.945Z,5.80
2022-10-23T21:44:23.550Z,6.23
2022-10-23T21:46:50.910Z,6.32
2022-10-23T21:49:18.195Z,7.15
2022-10-23T21:51:45.392Z,7.18
2022-10-23T21:54:13.415Z,7.18
2022-10-23T21:56:43.844Z,6.97
2022-10-23T21:59:13.665Z,6.18
2022-10-23T22:01:41.849Z,6.75
2022-10-23T22:04:10.303Z,6.78
2022-10-23T22:06:37.585Z,6.97
2022-10-23T22:09:05.081Z,6.73
2022-10-23T22:11:32.438Z,7.50
2022-10-23T22:13:59.839Z,7.18
2022-10-23T22:16:27.632Z,7.13
2022-10-23T22:18:54.896Z,6.60
2022-10-23T22:21:23.982Z,5.73
2022-10-23T22:23:51.550Z,6.20
2022-10-23T22:26:23.777Z,5.82
2022-10-23T22:28:52.170Z,6.80
2022-10-23T22:31:21.305Z,5.60
2022-10-23T22:33:48.850Z,5.63
2022-10-23T22:36:16.137Z,6.05
2022-10-23T22:38:44.519Z,6.38
2022-10-23T22:41:11.926Z,6.57
2022-10-23T22:43:39.323Z,6.50
2022-10-23T22:46:18.034Z,5.87
2022-10-23T22:48:45.790Z,6.78
2022-10-23T22:51:14.567Z,5.85
2022-10-23T22:53:42.191Z,5.22
2022-10-23T22:56:11.621Z,6.03
2022-10-23T22:58:39.033Z,5.57
2022-10-23T23:01:15.788Z,5.22
2022-10-23T23:03:43.196Z,4.88
2022-10-23T23:06:10.517Z,5.25
2022-10-23T23:08:38.412Z,5.82
2022-10-23T23:11:06.567Z,5.63
2022-10-23T23:13:33.980Z,5.13
2022-10-23T23:16:01.262Z,5.70
2022-10-23T23:18:28.651Z,5.55
2022-10-23T23:21:00.075Z,5.88
2022-10-23T23:23:27.445Z,5.73
2022-10-23T23:25:54.665Z,5.47
2022-10-23T23:28:22.031Z,5.80
2022-10-23T23:30:49.228Z,5.88
2022-10-23T23:33:19.261Z,6.15
2022-10-23T23:35:48.341Z,5.60
2022-10-23T23:38:15.532Z,6.20
2022-10-23T23:40:49.916Z,5.60
2022-10-23T23:43:17.136Z,5.97
2022-10-23T23:45:44.323Z,6.20
2022-10-23T23:48:11.761Z,5.67
2022-10-23T23:50:39.035Z,5.93
2022-10-23T23:53:06.312Z,5.60
2022-10-23T23:55:33.595Z,5.55
2022-10-23T23:58:01.015Z,6.22
